createdAt,value
2017-10-07T00:01:47.989Z,10.30
2017-10-07T00:04:16.542Z,10.30
2017-10-07T00:06:44.153Z,10.20
2017-10-07T00:09:11.765Z,10.30
2017-10-07T00:11:39.402Z,10.30
2017-10-07T00:14:07.025Z,10.40
2017-10-07T00:16:35.458Z,10.40
2017-10-07T00:19:03.065Z,10.30
2017-10-07T00:21:30.718Z,10.40
2017-10-07T00:23:58.328Z,10.40
2017-10-07T00:26:25.996Z,10.40
2017-10-07T00:28:53.917Z,10.40
2017-10-07T00:31:21.526Z,10.40
2017-10-07T00:33:49.186Z,10.40
2017-10-07T00:36:16.814Z,10.40
2017-10-07T00:38:44.458Z,10.40
2017-10-07T00:41:12.074Z,10.40
2017-10-07T00:43:40.453Z,10.40
2017-10-07T00:46:08.178Z,10.30
2017-10-07T00:48:36.646Z,10.40
2017-10-07T00:51:05.051Z,10.40
2017-10-07T00:53:32.944Z,10.30
2017-10-07T00:56:00.627Z,10.40
2017-10-07T00:58:28.338Z,10.40
2017-10-07T01:00:56.030Z,10.40
2017-10-07T01:03:23.666Z,10.40
2017-10-07T01:05:51.281Z,10.40
2017-10-07T01:08:18.941Z,10.40
2017-10-07T01:10:47.393Z,10.30
2017-10-07T01:13:15.010Z,10.30
2017-10-07T01:15:42.654Z,10.40
2017-10-07T01:18:10.276Z,10.30
2017-10-07T01:20:37.978Z,10.20
2017-10-07T01:23:05.617Z,10.20
2017-10-07T01:25:33.302Z,10.20
2017-10-07T01:28:01.702Z,10.20
2017-10-07T01:30:29.309Z,10.10
2017-10-07T01:32:56.961Z,10.20
2017-10-07T01:35:24.575Z,10.20
2017-10-07T01:37:52.189Z,10.10
2017-10-07T01:40:19.826Z,10.10
2017-10-07T01:42:47.589Z,10.00
2017-10-07T01:45:15.226Z,10.10
2017-10-07T01:47:42.854Z,10.10
2017-10-07T01:50:10.506Z,10.00
2017-10-07T01:52:38.118Z,9.90
2017-10-07T01:55:06.650Z,9.80
2017-10-07T01:57:34.285Z,9.80
2017-10-07T02:00:01.897Z,9.90
2017-10-07T02:02:29.538Z,10.00
2017-10-07T02:04:57.226Z,10.00
2017-10-07T02:07:24.882Z,10.00
2017-10-07T02:09:52.485Z,10.00
2017-10-07T02:12:20.101Z,10.00
2017-10-07T02:14:47.776Z,10.00
2017-10-07T02:17:15.393Z,10.00
2017-10-07T02:19:43.086Z,10.00
2017-10-07T02:22:10.706Z,10.00
2017-10-07T02:24:39.124Z,10.00
2017-10-07T02:27:06.734Z,10.00
2017-10-07T02:29:34.350Z,10.10
2017-10-07T02:32:02.762Z,10.10
2017-10-07T02:34:30.382Z,10.10
2017-10-07T02:36:58.022Z,10.10
2017-10-07T02:39:25.726Z,10.10
2017-10-07T02:41:53.378Z,10.10
2017-10-07T02:44:20.990Z,10.10
2017-10-07T02:46:48.610Z,10.20
2017-10-07T02:49:16.302Z,10.20
2017-10-07T02:51:44.729Z,10.20
2017-10-07T02:54:12.377Z,10.30
2017-10-07T02:56:39.993Z,10.20
2017-10-07T02:59:08.417Z,10.20
2017-10-07T03:01:36.181Z,10.20
2017-10-07T03:04:03.799Z,10.20
2017-10-07T03:06:31.438Z,10.10
2017-10-07T03:08:59.062Z,10.20
2017-10-07T03:11:26.709Z,10.10
2017-10-07T03:13:55.085Z,10.20
2017-10-07T03:16:22.737Z,10.10
2017-10-07T03:18:50.353Z,10.20
2017-10-07T03:21:18.738Z,10.20
2017-10-07T03:23:46.530Z,10.10
2017-10-07T03:26:14.146Z,10.20
2017-10-07T03:28:41.786Z,10.10
2017-10-07T03:31:09.407Z,10.10
2017-10-07T03:33:37.821Z,10.10
2017-10-07T03:36:05.443Z,10.10
2017-10-07T03:38:33.070Z,10.10
2017-10-07T03:41:01.486Z,10.20
2017-10-07T03:43:29.102Z,10.20
2017-10-07T03:45:56.762Z,10.20
2017-10-07T03:48:24.385Z,10.20
2017-10-07T03:50:52.006Z,10.20
2017-10-07T03:53:20.414Z,10.20
2017-10-07T03:55:48.025Z,10.20
2017-10-07T03:58:15.772Z,10.20
2017-10-07T04:00:43.389Z,10.20
2017-10-07T04:03:11.051Z,10.20
2017-10-07T04:05:38.657Z,10.20
2017-10-07T04:08:06.281Z,10.20
2017-10-07T04:10:33.918Z,10.30
2017-10-07T04:13:01.534Z,10.20
2017-10-07T04:15:29.175Z,10.30
2017-10-07T04:17:56.785Z,10.20
2017-10-07T04:20:25.261Z,10.30
2017-10-07T04:22:52.880Z,10.20
2017-10-07T04:25:21.262Z,10.30
2017-10-07T04:27:49.665Z,10.30
2017-10-07T04:30:17.273Z,10.20
2017-10-07T04:32:44.925Z,10.20
2017-10-07T04:35:12.546Z,10.30
2017-10-07T04:37:40.970Z,10.30
2017-10-07T04:40:08.586Z,10.20
2017-10-07T04:42:36.220Z,10.30
2017-10-07T04:45:03.866Z,10.30
2017-10-07T04:47:31.493Z,10.30
2017-10-07T04:49:59.234Z,10.30
2017-10-07T04:52:26.858Z,10.30
2017-10-07T04:54:54.510Z,10.40
2017-10-07T04:57:22.121Z,10.30
2017-10-07T04:59:49.737Z,10.30
2017-10-07T05:02:18.169Z,10.30
2017-10-07T05:04:45.781Z,10.20
2017-10-07T05:07:15.042Z,10.30
2017-10-07T05:09:42.665Z,10.30
2017-10-07T05:12:10.319Z,10.20
2017-10-07T05:14:38.701Z,10.30
2017-10-07T05:17:06.388Z,10.20
2017-10-07T05:19:34.039Z,10.30
2017-10-07T05:22:01.657Z,10.30
2017-10-07T05:24:29.297Z,10.30
2017-10-07T05:26:56.929Z,10.30
2017-10-07T05:29:25.403Z,10.30
2017-10-07T05:31:53.018Z,10.20
2017-10-07T05:34:20.662Z,10.30
2017-10-07T05:36:48.318Z,10.30
2017-10-07T05:39:16.726Z,10.40
2017-10-07T05:41:45.216Z,10.30
2017-10-07T05:44:12.850Z,10.40
2017-10-07T05:46:40.502Z,10.40
2017-10-07T05:49:08.125Z,10.40
2017-10-07T05:51:35.758Z,10.40
2017-10-07T05:54:03.471Z,10.40
2017-10-07T05:56:31.090Z,10.50
2017-10-07T05:58:58.797Z,10.50
2017-10-07T06:01:26.573Z,10.50
2017-10-07T06:03:54.262Z,10.50
2017-10-07T06:06:21.877Z,10.50
2017-10-07T06:08:49.546Z,10.50
2017-10-07T06:11:23.022Z,10.50
2017-10-07T06:13:50.654Z,10.50
2017-10-07T06:16:18.358Z,10.50
2017-10-07T06:18:46.730Z,10.50
2017-10-07T06:21:14.542Z,10.50
2017-10-07T06:23:43.787Z,10.40
2017-10-07T06:26:11.397Z,10.40
2017-10-07T06:28:40.061Z,10.40
2017-10-07T06:31:07.765Z,10.40
2017-10-07T06:33:35.842Z,10.40
2017-10-07T06:36:03.470Z,10.50
2017-10-07T06:38:31.134Z,10.50
2017-10-07T06:40:58.754Z,10.60
2017-10-07T06:43:26.661Z,10.60
2017-10-07T06:45:55.086Z,10.60
2017-10-07T06:48:24.292Z,10.60
2017-10-07T06:50:53.097Z,10.70
2017-10-07T06:53:20.850Z,10.80
2017-10-07T06:55:48.513Z,10.80
2017-10-07T06:58:16.302Z,10.80
2017-10-07T07:00:43.925Z,10.80
2017-10-07T07:03:11.566Z,10.80
2017-10-07T07:05:39.178Z,10.90
2017-10-07T07:08:06.826Z,11.10
2017-10-07T07:10:34.486Z,11.10
2017-10-07T07:13:02.149Z,11.20
2017-10-07T07:15:29.761Z,11.10
2017-10-07T07:17:57.389Z,11.30
2017-10-07T07:20:25.026Z,11.40
2017-10-07T07:22:52.642Z,11.40
2017-10-07T07:25:20.273Z,11.50
2017-10-07T07:27:47.877Z,11.60
2017-10-07T07:30:16.294Z,11.70
2017-10-07T07:32:43.909Z,11.60
2017-10-07T07:35:11.519Z,11.70
2017-10-07T07:37:39.157Z,11.70
2017-10-07T07:40:06.772Z,11.60
2017-10-07T07:42:34.442Z,11.40
2017-10-07T07:45:02.072Z,11.30
2017-10-07T07:47:29.713Z,11.20
2017-10-07T07:49:57.325Z,11.30
2017-10-07T07:52:24.938Z,11.30
2017-10-07T07:54:52.577Z,11.20
2017-10-07T07:57:20.546Z,11.20
2017-10-07T07:59:48.182Z,11.20
2017-10-07T08:02:15.806Z,11.20
2017-10-07T08:04:43.462Z,11.20
2017-10-07T08:07:11.074Z,11.30
2017-10-07T08:09:38.697Z,11.40
2017-10-07T08:12:07.162Z,11.30
2017-10-07T08:14:35.603Z,11.40
2017-10-07T08:17:03.345Z,11.30
2017-10-07T08:19:30.959Z,11.40
2017-10-07T08:21:58.613Z,11.30
2017-10-07T08:24:26.258Z,11.40
2017-10-07T08:26:53.871Z,11.40
2017-10-07T08:29:21.514Z,11.50
2017-10-07T08:31:49.223Z,11.60
2017-10-07T08:34:16.878Z,11.70
2017-10-07T08:36:44.488Z,11.70
2017-10-07T08:39:12.140Z,11.90
2017-10-07T08:41:39.829Z,12.10
2017-10-07T08:44:07.482Z,12.30
2017-10-07T08:46:35.890Z,12.80
2017-10-07T08:49:03.506Z,12.70
2017-10-07T08:51:31.908Z,12.40
2017-10-07T08:53:59.550Z,12.30
2017-10-07T08:56:27.233Z,12.70
2017-10-07T08:58:55.791Z,13.90
2017-10-07T09:01:23.407Z,14.60
2017-10-07T09:03:51.066Z,14.80
2017-10-07T09:06:18.683Z,14.30
2017-10-07T09:08:46.431Z,13.30
2017-10-07T09:11:14.051Z,12.70
2017-10-07T09:13:41.680Z,12.40
2017-10-07T09:16:09.324Z,12.30
2017-10-07T09:18:36.933Z,12.40
2017-10-07T09:21:04.582Z,12.70
2017-10-07T09:23:32.209Z,13.00
2017-10-07T09:25:59.822Z,12.80
2017-10-07T09:28:27.551Z,12.90
2017-10-07T09:30:55.175Z,12.80
2017-10-07T09:33:22.811Z,12.60
2017-10-07T09:35:50.427Z,12.50
2017-10-07T09:38:18.858Z,12.50
2017-10-07T09:40:46.566Z,12.50
2017-10-07T09:43:14.180Z,12.80
2017-10-07T09:45:42.582Z,13.20
2017-10-07T09:48:10.220Z,13.10
2017-10-07T09:50:37.858Z,13.10
2017-10-07T09:53:05.475Z,12.90
2017-10-07T09:55:33.892Z,12.80
2017-10-07T09:58:01.497Z,12.80
2017-10-07T10:00:30.244Z,14.10
2017-10-07T10:02:58.680Z,14.70
2017-10-07T10:05:26.326Z,14.60
2017-10-07T10:07:53.968Z,15.00
2017-10-07T10:10:21.606Z,15.40
2017-10-07T10:12:49.254Z,15.00
2017-10-07T10:15:16.899Z,14.50
2017-10-07T10:17:44.514Z,14.10
2017-10-07T10:20:12.194Z,13.60
2017-10-07T10:22:39.824Z,13.20
2017-10-07T10:25:07.504Z,12.90
2017-10-07T10:27:35.123Z,12.90
2017-10-07T10:30:02.777Z,12.90
2017-10-07T10:32:30.405Z,12.70
2017-10-07T10:34:58.028Z,12.70
2017-10-07T10:37:26.559Z,12.80
2017-10-07T10:39:54.197Z,12.70
2017-10-07T10:42:21.842Z,12.90
2017-10-07T10:44:49.473Z,12.80
2017-10-07T10:47:17.296Z,12.70
2017-10-07T10:49:44.924Z,12.60
2017-10-07T10:52:12.538Z,12.40
2017-10-07T10:54:40.186Z,12.40
2017-10-07T10:57:07.803Z,12.30
2017-10-07T10:59:35.448Z,12.10
2017-10-07T11:02:03.115Z,12.10
2017-10-07T11:04:30.769Z,12.00
2017-10-07T11:06:58.382Z,11.90
2017-10-07T11:09:26.023Z,11.60
2017-10-07T11:11:54.759Z,11.70
2017-10-07T11:14:22.371Z,11.80
2017-10-07T11:16:50.014Z,11.80
2017-10-07T11:19:17.635Z,11.80
2017-10-07T11:21:49.010Z,11.80
2017-10-07T11:24:17.090Z,11.60
2017-10-07T11:26:44.709Z,11.70
2017-10-07T11:29:12.443Z,11.60
2017-10-07T11:31:40.057Z,11.60
2017-10-07T11:34:07.705Z,11.70
2017-10-07T11:36:35.321Z,11.80
2017-10-07T11:39:02.984Z,12.10
2017-10-07T11:41:31.391Z,12.40
2017-10-07T11:43:59.021Z,12.40
2017-10-07T11:46:26.679Z,12.50
2017-10-07T11:48:54.294Z,12.60
2017-10-07T11:51:22.697Z,12.60
2017-10-07T11:53:50.319Z,12.60
2017-10-07T11:56:17.974Z,12.60
2017-10-07T11:58:45.596Z,12.40
2017-10-07T12:01:14.085Z,12.30
2017-10-07T12:03:41.751Z,12.30
2017-10-07T12:06:09.380Z,12.20
2017-10-07T12:08:37.135Z,12.20
2017-10-07T12:11:04.766Z,12.10
2017-10-07T12:13:32.421Z,12.20
2017-10-07T12:16:00.034Z,12.20
2017-10-07T12:18:28.426Z,12.20
2017-10-07T12:20:56.193Z,12.20
2017-10-07T12:23:23.819Z,12.30
2017-10-07T12:25:51.480Z,12.30
2017-10-07T12:28:19.114Z,12.30
2017-10-07T12:30:46.774Z,12.20
2017-10-07T12:33:14.404Z,12.10
2017-10-07T12:35:42.018Z,12.10
2017-10-07T12:38:09.676Z,12.20
2017-10-07T12:40:38.068Z,12.30
2017-10-07T12:43:05.734Z,12.20
2017-10-07T12:45:33.386Z,12.40
2017-10-07T12:48:01.044Z,12.40
2017-10-07T12:50:28.657Z,12.50
2017-10-07T12:52:56.357Z,12.60
2017-10-07T12:55:24.004Z,12.60
2017-10-07T12:57:51.630Z,12.60
2017-10-07T13:00:19.275Z,12.60
2017-10-07T13:02:46.897Z,12.60
2017-10-07T13:05:14.547Z,12.60
2017-10-07T13:07:42.198Z,12.80
2017-10-07T13:10:09.817Z,12.70
2017-10-07T13:12:37.454Z,12.70
2017-10-07T13:15:05.840Z,12.70
2017-10-07T13:17:33.483Z,12.60
2017-10-07T13:20:01.112Z,12.70
2017-10-07T13:22:29.533Z,12.80
2017-10-07T13:24:57.240Z,12.70
2017-10-07T13:27:24.853Z,12.70
2017-10-07T13:29:52.538Z,12.60
2017-10-07T13:32:20.158Z,12.60
2017-10-07T13:34:48.558Z,12.60
2017-10-07T13:37:16.270Z,12.50
2017-10-07T13:39:44.759Z,12.60
2017-10-07T13:42:12.384Z,12.60
2017-10-07T13:44:40.765Z,12.60
2017-10-07T13:47:08.403Z,12.60
2017-10-07T13:49:36.135Z,12.50
2017-10-07T13:52:04.572Z,12.40
2017-10-07T13:54:32.233Z,12.40
2017-10-07T13:56:59.850Z,12.40
2017-10-07T13:59:27.518Z,12.50
2017-10-07T14:01:55.135Z,12.60
2017-10-07T14:04:22.783Z,12.50
2017-10-07T14:06:50.395Z,12.60
2017-10-07T14:09:18.058Z,12.60
2017-10-07T14:11:45.786Z,12.50
2017-10-07T14:14:13.425Z,12.50
2017-10-07T14:16:41.863Z,12.50
2017-10-07T14:19:09.498Z,12.40
2017-10-07T14:21:37.325Z,12.50
2017-10-07T14:24:04.963Z,12.50
2017-10-07T14:26:32.637Z,12.50
2017-10-07T14:29:00.255Z,12.60
2017-10-07T14:31:27.901Z,12.50
2017-10-07T14:33:55.649Z,12.50
2017-10-07T14:36:23.381Z,12.50
2017-10-07T14:38:51.048Z,12.50
2017-10-07T14:41:18.679Z,12.40
2017-10-07T14:43:46.502Z,12.50
2017-10-07T14:46:14.131Z,12.40
2017-10-07T14:48:41.938Z,12.30
2017-10-07T14:51:09.581Z,12.30
2017-10-07T14:53:37.274Z,12.30
2017-10-07T14:56:04.950Z,12.40
2017-10-07T14:58:33.381Z,12.20
2017-10-07T15:01:01.070Z,12.20
2017-10-07T15:03:29.458Z,12.10
2017-10-07T15:05:57.231Z,12.10
2017-10-07T15:08:24.887Z,12.10
2017-10-07T15:10:52.509Z,12.00
2017-10-07T15:13:20.158Z,12.00
2017-10-07T15:15:47.774Z,12.00
2017-10-07T15:18:15.452Z,12.00
2017-10-07T15:20:43.131Z,12.00
2017-10-07T15:23:10.782Z,12.10
2017-10-07T15:25:39.207Z,11.90
2017-10-07T15:28:06.840Z,11.80
2017-10-07T15:30:34.488Z,11.80
2017-10-07T15:33:02.117Z,11.90
2017-10-07T15:35:29.781Z,11.90
2017-10-07T15:37:57.455Z,11.80
2017-10-07T15:40:25.109Z,11.70
2017-10-07T15:42:52.758Z,11.60
2017-10-07T15:45:20.376Z,11.50
2017-10-07T15:47:48.038Z,11.40
2017-10-07T15:50:15.749Z,11.40
2017-10-07T15:52:43.423Z,11.40
2017-10-07T15:55:11.058Z,11.20
2017-10-07T15:57:38.676Z,11.30
2017-10-07T16:00:07.273Z,11.20
2017-10-07T16:02:34.894Z,11.10
2017-10-07T16:05:03.314Z,11.00
2017-10-07T16:07:30.930Z,10.90
2017-10-07T16:09:58.558Z,10.90
2017-10-07T16:12:26.281Z,10.90
2017-10-07T16:14:53.893Z,10.90
2017-10-07T16:17:21.539Z,10.90
2017-10-07T16:19:49.162Z,10.90
2017-10-07T16:22:16.809Z,10.80
2017-10-07T16:24:44.427Z,10.70
2017-10-07T16:27:12.820Z,10.70
2017-10-07T16:29:40.468Z,10.70
2017-10-07T16:32:08.117Z,10.60
2017-10-07T16:34:35.774Z,10.60
2017-10-07T16:37:03.402Z,10.60
2017-10-07T16:39:31.022Z,10.60
2017-10-07T16:41:59.429Z,10.40
2017-10-07T16:44:27.215Z,10.40
2017-10-07T16:46:54.859Z,10.30
2017-10-07T16:49:22.474Z,10.30
2017-10-07T16:51:50.114Z,10.40
2017-10-07T16:54:17.747Z,10.30
2017-10-07T16:56:45.371Z,10.30
2017-10-07T16:59:13.783Z,10.30
2017-10-07T17:01:41.431Z,10.30
2017-10-07T17:04:09.110Z,10.40
2017-10-07T17:06:36.730Z,10.40
2017-10-07T17:09:04.374Z,10.30
2017-10-07T17:11:32.024Z,10.30
2017-10-07T17:13:59.651Z,10.40
2017-10-07T17:16:27.286Z,10.40
2017-10-07T17:18:54.902Z,10.40
2017-10-07T17:21:23.360Z,10.40
2017-10-07T17:23:51.754Z,10.40
2017-10-07T17:26:19.418Z,10.40
2017-10-07T17:28:47.261Z,10.40
2017-10-07T17:31:14.897Z,10.40
2017-10-07T17:33:42.534Z,10.40
2017-10-07T17:36:10.922Z,10.50
2017-10-07T17:38:38.576Z,10.50
2017-10-07T17:41:06.210Z,10.50
2017-10-07T17:43:33.825Z,10.50
2017-10-07T17:46:01.478Z,10.50
2017-10-07T17:48:29.861Z,10.50
2017-10-07T17:50:57.543Z,10.40
2017-10-07T17:53:25.157Z,10.50
2017-10-07T17:55:52.824Z,10.50
2017-10-07T17:58:20.438Z,10.40
2017-10-07T18:00:48.062Z,10.50
2017-10-07T18:03:16.574Z,10.40
2017-10-07T18:05:44.187Z,10.30
2017-10-07T18:08:11.838Z,10.40
2017-10-07T18:10:39.458Z,10.20
2017-10-07T18:13:07.261Z,10.20
2017-10-07T18:15:34.902Z,10.20
2017-10-07T18:18:02.521Z,10.20
2017-10-07T18:20:30.952Z,10.20
2017-10-07T18:22:58.575Z,10.10
2017-10-07T18:25:26.310Z,10.20
2017-10-07T18:27:53.940Z,10.20
2017-10-07T18:30:21.604Z,10.10
2017-10-07T18:32:49.225Z,10.20
2017-10-07T18:35:17.612Z,10.00
2017-10-07T18:37:45.288Z,10.00
2017-10-07T18:40:12.909Z,10.00
2017-10-07T18:42:40.555Z,9.90
2017-10-07T18:45:08.171Z,9.90
2017-10-07T18:47:36.587Z,9.70
2017-10-07T18:50:04.218Z,9.70
2017-10-07T18:52:31.835Z,9.70
2017-10-07T18:54:59.472Z,9.70
2017-10-07T18:57:27.888Z,9.70
2017-10-07T18:59:55.562Z,9.70
2017-10-07T19:02:23.276Z,9.70
2017-10-07T19:04:50.888Z,9.70
2017-10-07T19:07:18.526Z,9.70
2017-10-07T19:09:46.184Z,9.60
2017-10-07T19:12:13.822Z,9.60
2017-10-07T19:14:42.207Z,9.50
2017-10-07T19:17:09.904Z,9.40
2017-10-07T19:19:37.526Z,9.40
2017-10-07T19:22:05.146Z,9.30
2017-10-07T19:24:33.626Z,9.20
2017-10-07T19:27:01.245Z,9.10
2017-10-07T19:29:28.884Z,9.10
2017-10-07T19:31:57.261Z,9.10
2017-10-07T19:34:24.914Z,9.00
2017-10-07T19:36:52.558Z,9.10
2017-10-07T19:39:20.179Z,9.10
2017-10-07T19:41:48.657Z,9.10
2017-10-07T19:44:16.364Z,9.10
2017-10-07T19:46:44.007Z,9.10
2017-10-07T19:49:11.641Z,9.20
2017-10-07T19:51:39.258Z,9.10
2017-10-07T19:54:06.915Z,9.10
2017-10-07T19:56:34.534Z,9.10
2017-10-07T19:59:02.177Z,9.20
2017-10-07T20:01:30.551Z,9.20
2017-10-07T20:03:58.261Z,9.20
2017-10-07T20:06:25.910Z,9.30
2017-10-07T20:08:53.529Z,9.30
2017-10-07T20:11:21.248Z,9.30
2017-10-07T20:13:48.953Z,9.30
2017-10-07T20:16:17.529Z,9.40
2017-10-07T20:18:45.918Z,9.40
2017-10-07T20:21:13.598Z,9.40
2017-10-07T20:23:41.235Z,9.50
2017-10-07T20:26:08.923Z,9.50
2017-10-07T20:28:36.854Z,9.60
2017-10-07T20:31:06.009Z,9.60
2017-10-07T20:33:33.670Z,9.60
2017-10-07T20:36:01.286Z,9.60
2017-10-07T20:38:28.930Z,9.60
2017-10-07T20:40:56.759Z,9.70
2017-10-07T20:43:25.143Z,9.70
2017-10-07T20:45:53.545Z,9.70
2017-10-07T20:48:21.178Z,9.70
2017-10-07T20:50:48.826Z,9.80
2017-10-07T20:53:16.592Z,9.80
2017-10-07T20:55:44.247Z,9.90
2017-10-07T20:58:11.887Z,9.90
2017-10-07T21:00:39.608Z,9.90
2017-10-07T21:03:07.282Z,9.90
2017-10-07T21:05:34.887Z,9.90
2017-10-07T21:08:02.536Z,9.90
2017-10-07T21:10:30.202Z,10.00
2017-10-07T21:12:57.833Z,9.90
2017-10-07T21:15:25.531Z,10.00
2017-10-07T21:17:53.953Z,10.00
2017-10-07T21:20:21.598Z,9.90
2017-10-07T21:22:49.217Z,10.00
2017-10-07T21:25:17.647Z,10.10
2017-10-07T21:27:46.158Z,10.10
2017-10-07T21:30:13.797Z,10.00
2017-10-07T21:32:42.599Z,10.10
2017-10-07T21:35:10.275Z,10.00
2017-10-07T21:37:37.911Z,10.00
2017-10-07T21:40:05.708Z,10.00
2017-10-07T21:42:33.433Z,10.00
2017-10-07T21:45:01.102Z,10.00
2017-10-07T21:47:29.485Z,9.90
2017-10-07T21:49:57.286Z,9.90
2017-10-07T21:52:24.894Z,9.90
2017-10-07T21:54:52.534Z,9.80
2017-10-07T21:57:20.139Z,9.80
2017-10-07T21:59:48.260Z,9.70
2017-10-07T22:02:16.042Z,9.70
2017-10-07T22:04:43.764Z,9.70
2017-10-07T22:07:11.406Z,9.70
2017-10-07T22:09:39.014Z,9.70
2017-10-07T22:12:07.431Z,9.70
2017-10-07T22:14:35.087Z,9.60
2017-10-07T22:17:02.726Z,9.70
2017-10-07T22:19:30.746Z,9.70
2017-10-07T22:21:58.413Z,9.70
2017-10-07T22:24:26.154Z,9.70
2017-10-07T22:26:53.792Z,9.70
2017-10-07T22:29:21.633Z,9.70
2017-10-07T22:31:49.313Z,9.70
2017-10-07T22:34:16.934Z,9.60
2017-10-07T22:36:44.635Z,9.60
2017-10-07T22:39:12.388Z,9.60
2017-10-07T22:41:40.018Z,9.60
2017-10-07T22:44:07.650Z,9.60
2017-10-07T22:46:35.327Z,9.70
2017-10-07T22:49:03.037Z,9.70
2017-10-07T22:51:30.651Z,9.70
2017-10-07T22:53:58.273Z,9.70
2017-10-07T22:56:25.950Z,9.80
2017-10-07T22:58:53.561Z,9.70
2017-10-07T23:01:21.198Z,9.70
2017-10-07T23:03:48.834Z,9.70
2017-10-07T23:06:16.540Z,9.70
2017-10-07T23:08:44.162Z,9.70
2017-10-07T23:11:12.533Z,9.70
2017-10-07T23:13:40.941Z,9.70
2017-10-07T23:16:08.546Z,9.70
2017-10-07T23:18:36.369Z,9.70
2017-10-07T23:21:03.978Z,9.70
2017-10-07T23:23:31.653Z,9.70
2017-10-07T23:25:59.338Z,9.70
2017-10-07T23:28:28.430Z,9.80
2017-10-07T23:30:56.170Z,9.70
2017-10-07T23:33:24.014Z,9.70
2017-10-07T23:35:52.430Z,9.70
2017-10-07T23:38:20.050Z,9.70
2017-10-07T23:40:47.839Z,9.70
2017-10-07T23:43:15.449Z,9.60
2017-10-07T23:45:43.154Z,9.50
2017-10-07T23:48:10.781Z,9.50
2017-10-07T23:50:38.399Z,9.50
2017-10-07T23:53:06.158Z,9.50
2017-10-07T23:55:33.774Z,9.40
2017-10-07T23:58:01.418Z,9.50
